CCA8216 ZSJN-ZUGY
Flight info
| Callsign | CCA8216 |
|---|---|
| Flight time | N/A |
| Altitude | 38100 |
| Route | EXUVU9Z EXUVU W4 LIMGI W152 TAREX W278 AVDIG W276 ARELA W30 TAMUS/K0887S1190 W180 IVSOL/K0893S1160 W180 MEMAG MEMAG7X |
| Aircraft | B77W/H-SDE1E2E3FGHIJ2J3J4J5M1RWXY/LB1D1 |
Departure
| Time | N/A |
|---|---|
| Airport | Jinan Yaoqiang International Airport (ZSJN) |
Arrival
| Time | 2026-04-19 13:49 |
|---|---|
| Airport | Guiyang Longdongbao International Airport (ZUGY) |
| Time | Latitude | Longitude | Altitude | Speed | Heading |
|---|---|---|---|---|---|
| 2026-04-19 12:49 | 33.00348 | 108.99322 | 34154 ft | 478 kts | 214° |
| 2026-04-19 12:49 | 32.98433 | 108.97993 | 34166 ft | 476 kts | 214° |
| 2026-04-19 12:49 | 32.92633 | 108.93973 | 34133 ft | 478 kts | 214° |
| 2026-04-19 12:50 | 32.86848 | 108.89968 | 34132 ft | 477 kts | 214° |
| 2026-04-19 12:50 | 32.81074 | 108.85977 | 34111 ft | 476 kts | 214° |
| 2026-04-19 12:51 | 32.75347 | 108.82025 | 34098 ft | 478 kts | 214° |
| 2026-04-19 12:51 | 32.69543 | 108.78026 | 34101 ft | 480 kts | 214° |
| 2026-04-19 12:52 | 32.63717 | 108.74017 | 34097 ft | 482 kts | 214° |
| 2026-04-19 12:52 | 32.57904 | 108.70025 | 34103 ft | 480 kts | 214° |
| 2026-04-19 12:53 | 32.52089 | 108.66035 | 34096 ft | 483 kts | 214° |
| 2026-04-19 12:53 | 32.45617 | 108.60819 | 34122 ft | 477 kts | 227° |
| 2026-04-19 12:54 | 32.42159 | 108.55787 | 34123 ft | 473 kts | 241° |
| 2026-04-19 12:54 | 32.39641 | 108.48695 | 34176 ft | 470 kts | 256° |
| 2026-04-19 12:55 | 32.38000 | 108.41263 | 34155 ft | 468 kts | 256° |
| 2026-04-19 12:55 | 32.36088 | 108.32581 | 34142 ft | 468 kts | 256° |
| 2026-04-19 12:56 | 32.34706 | 108.26350 | 34127 ft | 468 kts | 256° |
| 2026-04-19 12:56 | 32.32886 | 108.18884 | 34123 ft | 470 kts | 254° |
| 2026-04-19 12:57 | 32.30968 | 108.11470 | 34133 ft | 473 kts | 253° |
| 2026-04-19 12:57 | 32.29057 | 108.04071 | 34118 ft | 471 kts | 253° |
| 2026-04-19 12:58 | 32.27138 | 107.96642 | 34113 ft | 474 kts | 253° |
| 2026-04-19 12:58 | 32.25193 | 107.89123 | 34094 ft | 472 kts | 254° |
| 2026-04-19 12:59 | 32.23274 | 107.81717 | 34080 ft | 477 kts | 254° |
| 2026-04-19 12:59 | 32.21006 | 107.74385 | 34094 ft | 470 kts | 243° |
| 2026-04-19 13:00 | 32.18573 | 107.70067 | 34097 ft | 475 kts | 232° |
| 2026-04-19 13:00 | 32.17053 | 107.68119 | 34060 ft | 481 kts | 227° |
| 2026-04-19 13:00 | 32.11547 | 107.63547 | 34082 ft | 488 kts | 209° |
| 2026-04-19 13:01 | 32.05062 | 107.60844 | 34072 ft | 496 kts | 200° |
| 2026-04-19 13:01 | 31.98446 | 107.58502 | 34067 ft | 494 kts | 200° |
| 2026-04-19 13:02 | 31.91847 | 107.56193 | 34064 ft | 495 kts | 200° |
| 2026-04-19 13:02 | 31.84095 | 107.53500 | 34027 ft | 497 kts | 200° |
| 2026-04-19 13:03 | 31.78546 | 107.51579 | 34054 ft | 497 kts | 200° |
| 2026-04-19 13:03 | 31.72144 | 107.49370 | 34032 ft | 496 kts | 199° |
| 2026-04-19 13:04 | 31.65490 | 107.47081 | 33972 ft | 495 kts | 199° |
| 2026-04-19 13:04 | 31.58867 | 107.44803 | 34019 ft | 497 kts | 199° |
| 2026-04-19 13:05 | 31.52234 | 107.42528 | 33976 ft | 496 kts | 199° |
| 2026-04-19 13:05 | 31.45591 | 107.40252 | 34007 ft | 496 kts | 199° |
| 2026-04-19 13:06 | 31.39030 | 107.37633 | 33977 ft | 493 kts | 208° |
| 2026-04-19 13:06 | 31.32881 | 107.33999 | 33973 ft | 495 kts | 209° |
| 2026-04-19 13:07 | 31.26784 | 107.30351 | 33948 ft | 493 kts | 209° |
| 2026-04-19 13:07 | 31.20067 | 107.26341 | 33950 ft | 494 kts | 209° |
| 2026-04-19 13:08 | 31.15853 | 107.23830 | 33941 ft | 493 kts | 208° |
| 2026-04-19 13:08 | 31.09712 | 107.20176 | 33957 ft | 492 kts | 209° |
| 2026-04-19 13:09 | 31.03591 | 107.16540 | 33933 ft | 494 kts | 209° |
| 2026-04-19 13:09 | 30.96421 | 107.12286 | 33933 ft | 495 kts | 208° |
| 2026-04-19 13:10 | 30.90295 | 107.08660 | 33979 ft | 495 kts | 209° |
| 2026-04-19 13:10 | 30.84227 | 107.05074 | 33933 ft | 495 kts | 209° |
| 2026-04-19 13:11 | 30.79103 | 107.02051 | 33932 ft | 494 kts | 208° |
| 2026-04-19 13:11 | 30.71784 | 106.98118 | 33905 ft | 499 kts | 200° |
| 2026-04-19 13:12 | 30.66063 | 106.96890 | 33919 ft | 507 kts | 186° |
| 2026-04-19 13:12 | 30.59014 | 106.96871 | 33934 ft | 506 kts | 182° |
| 2026-04-19 13:13 | 30.51967 | 106.96960 | 33957 ft | 506 kts | 182° |
| 2026-04-19 13:13 | 30.44884 | 106.97047 | 33937 ft | 509 kts | 182° |
| 2026-04-19 13:14 | 30.37755 | 106.97134 | 33920 ft | 510 kts | 182° |
| 2026-04-19 13:14 | 30.30587 | 106.97144 | 33904 ft | 515 kts | 184° |
| 2026-04-19 13:15 | 30.23459 | 106.97045 | 33894 ft | 512 kts | 184° |
| 2026-04-19 13:15 | 30.15107 | 106.96935 | 33901 ft | 515 kts | 184° |
| 2026-04-19 13:16 | 30.09105 | 106.96858 | 33916 ft | 518 kts | 184° |
| 2026-04-19 13:16 | 30.01892 | 106.96769 | 33918 ft | 518 kts | 184° |
| 2026-04-19 13:17 | 29.94669 | 106.96681 | 33916 ft | 517 kts | 184° |
| 2026-04-19 13:17 | 29.87466 | 106.96594 | 33860 ft | 518 kts | 184° |
| 2026-04-19 13:18 | 29.80203 | 106.96508 | 33867 ft | 517 kts | 184° |
| 2026-04-19 13:18 | 29.72969 | 106.96421 | 33859 ft | 516 kts | 184° |
| 2026-04-19 13:19 | 29.65819 | 106.96336 | 33847 ft | 514 kts | 184° |
| 2026-04-19 13:19 | 29.58644 | 106.96251 | 33893 ft | 515 kts | 184° |
| 2026-04-19 13:20 | 29.51459 | 106.96165 | 33901 ft | 516 kts | 184° |
| 2026-04-19 13:20 | 29.44330 | 106.96080 | 33921 ft | 514 kts | 184° |
| 2026-04-19 13:21 | 29.36014 | 106.95980 | 33943 ft | 512 kts | 185° |
| 2026-04-19 13:21 | 29.30078 | 106.95908 | 33950 ft | 512 kts | 185° |
| 2026-04-19 13:22 | 29.22939 | 106.95821 | 33969 ft | 511 kts | 184° |
| 2026-04-19 13:22 | 29.15853 | 106.95736 | 33958 ft | 508 kts | 185° |
| 2026-04-19 13:23 | 29.08730 | 106.95650 | 33990 ft | 509 kts | 185° |
| 2026-04-19 13:23 | 29.01670 | 106.95564 | 33987 ft | 508 kts | 185° |
| 2026-04-19 13:24 | 28.93500 | 106.95467 | 33974 ft | 505 kts | 185° |
| 2026-04-19 13:24 | 28.87668 | 106.95397 | 33988 ft | 506 kts | 184° |
| 2026-04-19 13:25 | 28.79405 | 106.95300 | 33947 ft | 508 kts | 185° |
| 2026-04-19 13:25 | 28.73632 | 106.95229 | 33945 ft | 506 kts | 185° |
| 2026-04-19 13:26 | 28.66531 | 106.95144 | 33992 ft | 505 kts | 184° |
| 2026-04-19 13:26 | 28.58303 | 106.95046 | 34027 ft | 507 kts | 184° |
| 2026-04-19 13:27 | 28.51286 | 106.94963 | 33752 ft | 502 kts | 185° |
| 2026-04-19 13:27 | 28.47780 | 106.94920 | 33292 ft | 505 kts | 184° |
| 2026-04-19 13:27 | 28.44230 | 106.94878 | 32795 ft | 509 kts | 184° |
| 2026-04-19 13:28 | 28.41882 | 106.94849 | 32572 ft | 509 kts | 184° |
| 2026-04-19 13:28 | 28.38335 | 106.94807 | 32370 ft | 507 kts | 184° |
| 2026-04-19 13:28 | 28.31319 | 106.94726 | 32278 ft | 498 kts | 184° |
| 2026-04-19 13:29 | 28.24428 | 106.94646 | 32277 ft | 490 kts | 184° |
| 2026-04-19 13:29 | 28.17598 | 106.94907 | 32248 ft | 484 kts | 180° |
| 2026-04-19 13:30 | 28.14275 | 106.95116 | 32090 ft | 475 kts | 180° |
| 2026-04-19 13:30 | 28.11001 | 106.95318 | 31219 ft | 477 kts | 180° |
| 2026-04-19 13:30 | 28.04311 | 106.95710 | 29673 ft | 474 kts | 180° |
| 2026-04-19 13:31 | 28.01075 | 106.95889 | 29143 ft | 469 kts | 180° |
| 2026-04-19 13:31 | 27.97812 | 106.96067 | 28583 ft | 464 kts | 180° |
| 2026-04-19 13:31 | 27.93531 | 106.96298 | 27797 ft | 458 kts | 180° |
| 2026-04-19 13:31 | 27.91386 | 106.96413 | 27568 ft | 452 kts | 180° |
| 2026-04-19 13:32 | 27.88249 | 106.96580 | 27539 ft | 455 kts | 181° |
| 2026-04-19 13:32 | 27.85145 | 106.96743 | 27515 ft | 452 kts | 181° |
| 2026-04-19 13:32 | 27.82091 | 106.96905 | 27094 ft | 446 kts | 180° |
| 2026-04-19 13:32 | 27.79045 | 106.97066 | 26390 ft | 445 kts | 181° |
| 2026-04-19 13:33 | 27.74896 | 106.97285 | 25505 ft | 442 kts | 180° |
| 2026-04-19 13:33 | 27.72959 | 106.97388 | 25187 ft | 437 kts | 180° |
| 2026-04-19 13:33 | 27.69924 | 106.97549 | 24737 ft | 430 kts | 180° |
| 2026-04-19 13:33 | 27.65932 | 106.97759 | 23940 ft | 425 kts | 180° |
| 2026-04-19 13:34 | 27.63988 | 106.97860 | 23526 ft | 423 kts | 180° |
| 2026-04-19 13:34 | 27.61038 | 106.98015 | 22938 ft | 418 kts | 180° |
| 2026-04-19 13:34 | 27.58150 | 106.98167 | 22357 ft | 414 kts | 180° |
| 2026-04-19 13:34 | 27.55275 | 106.98317 | 21827 ft | 409 kts | 180° |
| 2026-04-19 13:35 | 27.51516 | 106.98515 | 21170 ft | 401 kts | 180° |
| 2026-04-19 13:35 | 27.48715 | 106.98661 | 20628 ft | 397 kts | 180° |
| 2026-04-19 13:35 | 27.46879 | 106.98756 | 20212 ft | 395 kts | 180° |
| 2026-04-19 13:35 | 27.44114 | 106.98802 | 19562 ft | 393 kts | 182° |
| 2026-04-19 13:36 | 27.41388 | 106.98819 | 19036 ft | 389 kts | 181° |
| 2026-04-19 13:36 | 27.38730 | 106.98837 | 18584 ft | 382 kts | 181° |
| 2026-04-19 13:36 | 27.35177 | 106.98865 | 17866 ft | 377 kts | 181° |
| 2026-04-19 13:36 | 27.33460 | 106.98881 | 17481 ft | 375 kts | 181° |
| 2026-04-19 13:37 | 27.30842 | 106.98904 | 16909 ft | 373 kts | 181° |
| 2026-04-19 13:37 | 27.28239 | 106.98929 | 16226 ft | 373 kts | 180° |
| 2026-04-19 13:37 | 27.25629 | 106.98954 | 15513 ft | 375 kts | 180° |
| 2026-04-19 13:37 | 27.23013 | 106.98977 | 14794 ft | 375 kts | 181° |
| 2026-04-19 13:38 | 27.20446 | 106.98682 | 14073 ft | 375 kts | 192° |
| 2026-04-19 13:38 | 27.17956 | 106.97849 | 13364 ft | 375 kts | 199° |
| 2026-04-19 13:38 | 27.15481 | 106.96822 | 12642 ft | 375 kts | 200° |
| 2026-04-19 13:38 | 27.13067 | 106.95809 | 11953 ft | 374 kts | 200° |
| 2026-04-19 13:39 | 27.10628 | 106.94787 | 11234 ft | 372 kts | 200° |
| 2026-04-19 13:39 | 27.07429 | 106.93446 | 10296 ft | 365 kts | 200° |
| 2026-04-19 13:39 | 27.05051 | 106.92451 | 9595 ft | 360 kts | 200° |
| 2026-04-19 13:39 | 27.03494 | 106.91798 | 9133 ft | 357 kts | 200° |
| 2026-04-19 13:40 | 27.01218 | 106.90804 | 8450 ft | 353 kts | 200° |
| 2026-04-19 13:40 | 26.98965 | 106.89804 | 7989 ft | 341 kts | 200° |
| 2026-04-19 13:40 | 26.96799 | 106.88843 | 7891 ft | 320 kts | 200° |
| 2026-04-19 13:40 | 26.94744 | 106.88126 | 7863 ft | 297 kts | 191° |
| 2026-04-19 13:41 | 26.92164 | 106.87587 | 7843 ft | 272 kts | 188° |
| 2026-04-19 13:41 | 26.90346 | 106.87238 | 7826 ft | 254 kts | 188° |
| 2026-04-19 13:41 | 26.89216 | 106.87019 | 7823 ft | 244 kts | 188° |
| 2026-04-19 13:41 | 26.87560 | 106.86697 | 7824 ft | 230 kts | 188° |
| 2026-04-19 13:42 | 26.85534 | 106.86302 | 7815 ft | 213 kts | 188° |
| 2026-04-19 13:42 | 26.84569 | 106.86113 | 7811 ft | 205 kts | 188° |
| 2026-04-19 13:42 | 26.83190 | 106.85850 | 7817 ft | 192 kts | 189° |
| 2026-04-19 13:42 | 26.81958 | 106.85615 | 7814 ft | 181 kts | 188° |
| 2026-04-19 13:43 | 26.80311 | 106.85302 | 7818 ft | 180 kts | 188° |
| 2026-04-19 13:43 | 26.79048 | 106.85064 | 7820 ft | 180 kts | 188° |
| 2026-04-19 13:43 | 26.77822 | 106.84802 | 7820 ft | 180 kts | 189° |
| 2026-04-19 13:43 | 26.76571 | 106.84549 | 7753 ft | 180 kts | 189° |
| 2026-04-19 13:44 | 26.75755 | 106.84377 | 7611 ft | 179 kts | 189° |
| 2026-04-19 13:44 | 26.74127 | 106.84066 | 7333 ft | 176 kts | 189° |
| 2026-04-19 13:44 | 26.73311 | 106.83900 | 7190 ft | 178 kts | 188° |
| 2026-04-19 13:44 | 26.71701 | 106.83583 | 6896 ft | 175 kts | 188° |
| 2026-04-19 13:45 | 26.70879 | 106.83424 | 6748 ft | 176 kts | 188° |
| 2026-04-19 13:45 | 26.69679 | 106.83192 | 6526 ft | 175 kts | 188° |
| 2026-04-19 13:45 | 26.68472 | 106.82960 | 6312 ft | 173 kts | 188° |
| 2026-04-19 13:45 | 26.66893 | 106.82649 | 5999 ft | 170 kts | 187° |
| 2026-04-19 13:46 | 26.65766 | 106.82432 | 5790 ft | 160 kts | 186° |
| 2026-04-19 13:46 | 26.65036 | 106.82290 | 5658 ft | 159 kts | 186° |
| 2026-04-19 13:46 | 26.63945 | 106.82081 | 5454 ft | 157 kts | 187° |
| 2026-04-19 13:46 | 26.62511 | 106.81801 | 5180 ft | 157 kts | 188° |
| 2026-04-19 13:47 | 26.61798 | 106.81664 | 5040 ft | 154 kts | 189° |
| 2026-04-19 13:47 | 26.60733 | 106.81466 | 4857 ft | 155 kts | 188° |
| 2026-04-19 13:47 | 26.59295 | 106.81164 | 4556 ft | 159 kts | 190° |
| 2026-04-19 13:47 | 26.58224 | 106.80927 | 4410 ft | 155 kts | 189° |
| 2026-04-19 13:48 | 26.57151 | 106.80730 | 4114 ft | 153 kts | 186° |
| 2026-04-19 13:48 | 26.56108 | 106.80582 | 3858 ft | 151 kts | 191° |
| 2026-04-19 13:48 | 26.55406 | 106.80435 | 3765 ft | 153 kts | 191° |
| 2026-04-19 13:48 | 26.54448 | 106.80243 | 3749 ft | 118 kts | 189° |
| 2026-04-19 13:49 | 26.53788 | 106.80112 | 3748 ft | 74 kts | 190° |
| 2026-04-19 13:49 | 26.53366 | 106.80029 | 3748 ft | 31 kts | 190° |
| 2026-04-19 13:49 | 26.53243 | 106.79994 | 3748 ft | 23 kts | 201° |
| 2026-04-19 13:49 | 26.53090 | 106.79896 | 3748 ft | 16 kts | 216° |
| 2026-04-19 13:50 | 26.53047 | 106.79842 | 3748 ft | 12 kts | 256° |
| 2026-04-19 13:50 | 26.53064 | 106.79789 | 3748 ft | 6 kts | 339° |
| 2026-04-19 13:50 | 26.53111 | 106.79785 | 3748 ft | 7 kts | 1° |
| 2026-04-19 13:50 | 26.53161 | 106.79792 | 3748 ft | 7 kts | 11° |
| 2026-04-19 13:51 | 26.53242 | 106.79815 | 3748 ft | 10 kts | 14° |
| 2026-04-19 13:51 | 26.53325 | 106.79834 | 3748 ft | 13 kts | 9° |
| 2026-04-19 13:51 | 26.53425 | 106.79852 | 3748 ft | 15 kts | 9° |
| 2026-04-19 13:51 | 26.53501 | 106.79868 | 3748 ft | 17 kts | 10° |
| 2026-04-19 13:52 | 26.53666 | 106.79900 | 3748 ft | 18 kts | 9° |
| 2026-04-19 13:52 | 26.53787 | 106.79923 | 3748 ft | 16 kts | 10° |
| 2026-04-19 13:52 | 26.53862 | 106.79937 | 3748 ft | 16 kts | 10° |
| 2026-04-19 13:52 | 26.54004 | 106.79965 | 3748 ft | 14 kts | 10° |
| 2026-04-19 13:53 | 26.54072 | 106.79979 | 3748 ft | 14 kts | 9° |
| 2026-04-19 13:53 | 26.54169 | 106.79997 | 3748 ft | 13 kts | 9° |
| 2026-04-19 13:53 | 26.54261 | 106.80014 | 3748 ft | 13 kts | 10° |
| 2026-04-19 13:53 | 26.54376 | 106.80037 | 3748 ft | 12 kts | 10° |
| 2026-04-19 13:54 | 26.54458 | 106.80053 | 3748 ft | 11 kts | 9° |
| 2026-04-19 13:54 | 26.54512 | 106.80063 | 3748 ft | 11 kts | 10° |
| 2026-04-19 13:54 | 26.54614 | 106.80083 | 3748 ft | 10 kts | 10° |
| 2026-04-19 13:54 | 26.54664 | 106.80092 | 3748 ft | 10 kts | 10° |
| 2026-04-19 13:55 | 26.54738 | 106.80106 | 3748 ft | 10 kts | 10° |
| 2026-04-19 13:55 | 26.54808 | 106.80120 | 3748 ft | 10 kts | 10° |
| 2026-04-19 13:55 | 26.54878 | 106.80134 | 3748 ft | 9 kts | 9° |
| 2026-04-19 13:55 | 26.54945 | 106.80146 | 3748 ft | 9 kts | 10° |
| 2026-04-19 13:56 | 26.54999 | 106.80157 | 3748 ft | 5 kts | 5° |
| 2026-04-19 13:56 | 26.55034 | 106.80141 | 3748 ft | 5 kts | 312° |
| 2026-04-19 13:56 | 26.55056 | 106.80106 | 3748 ft | 5 kts | 316° |
| 2026-04-19 13:56 | 26.55091 | 106.80093 | 3748 ft | 5 kts | 2° |
| 2026-04-19 13:57 | 26.55131 | 106.80101 | 3748 ft | 5 kts | 10° |
| 2026-04-19 13:57 | 26.55173 | 106.80109 | 3748 ft | 6 kts | 10° |
| 2026-04-19 13:57 | 26.55220 | 106.80094 | 3748 ft | 5 kts | 304° |
| 2026-04-19 13:57 | 26.55231 | 106.80069 | 3748 ft | 5 kts | 297° |
| 2026-04-19 13:58 | 26.55249 | 106.80030 | 3748 ft | 5 kts | 297° |
| 2026-04-19 13:58 | 26.55274 | 106.79974 | 3748 ft | 6 kts | 291° |
| 2026-04-19 13:58 | 26.55279 | 106.79955 | 3748 ft | 2 kts | 288° |
| 2026-04-19 13:58 | 26.55282 | 106.79939 | 3748 ft | 2 kts | 279° |
| 2026-04-19 13:59 | 26.55285 | 106.79922 | 3748 ft | 2 kts | 279° |
| 2026-04-19 13:59 | 26.55286 | 106.79917 | 3748 ft | 0 kts | 279° |